Time;durP1;ratioP1;P1;durP2;ratioP2;P2;SDS_P1;SDS_P2;PMS_P1;PMS_P2;Temp;Humidity;BMP_temperature;BMP_pressure;BME280_temperature;BME280_humidity;BME280_pressure;Samples;Min_cycle;Max_cycle;Signal;HPM_P1;HPM_P2
2023/06/08 00:01:07;;;;;;;9.33;3.93;;;18.30;97.50;;;18.62;62.08;94993.13;5053295;28;20813;-63
2023/06/08 00:03:38;;;;;;;4.30;3.77;;;18.30;97.50;;;18.58;61.97;94995.34;5055604;28;21304;-62
2023/06/08 00:06:05;;;;;;;4.43;4.03;;;18.20;97.40;;;18.52;61.38;94992.63;5049598;28;20955;-62
2023/06/08 00:08:33;;;;;;;3.93;2.77;;;18.20;97.40;;;18.47;61.49;94995.84;5056401;28;20968;-63
2023/06/08 00:11:00;;;;;;;4.40;4.10;;;18.20;97.40;;;18.42;62.07;94998.22;5053153;28;20591;-63
2023/06/08 00:13:28;;;;;;;5.90;3.13;;;18.10;97.40;;;18.40;61.82;95000.25;5052427;28;20514;-63
2023/06/08 00:15:55;;;;;;;5.07;3.93;;;18.10;97.30;;;18.35;61.38;94999.97;5049596;28;20464;-65
2023/06/08 00:18:22;;;;;;;3.37;3.07;;;18.10;97.30;;;18.32;61.32;94997.69;5048055;28;20722;-62
2023/06/08 00:20:51;;;;;;;5.03;3.03;;;18.00;97.20;;;18.26;61.30;95002.75;5055179;28;20447;-64
2023/06/08 00:23:19;;;;;;;6.20;3.30;;;18.00;97.20;;;18.23;61.74;95004.94;5058774;28;20451;-65
2023/06/08 00:25:46;;;;;;;3.13;2.67;;;17.90;97.10;;;18.19;61.53;94993.00;5050153;28;20471;-61
2023/06/08 00:28:13;;;;;;;5.50;3.67;;;17.90;97.00;;;18.15;61.26;94997.84;5052552;28;20500;-61
2023/06/08 00:30:40;;;;;;;3.70;3.03;;;17.90;97.00;;;18.13;61.15;94999.06;5047465;28;20491;-64
2023/06/08 00:33:08;;;;;;;4.50;3.13;;;17.80;97.00;;;18.10;61.84;95000.25;5052613;28;20505;-61
2023/06/08 00:35:35;;;;;;;3.30;2.13;;;17.80;97.00;;;18.08;61.65;94996.97;5047418;28;20486;-64
2023/06/08 00:38:04;;;;;;;4.73;3.13;;;17.80;97.00;;;18.03;61.63;95004.66;5050998;28;20451;-66
2023/06/08 00:40:31;;;;;;;4.33;3.33;;;17.70;96.90;;;17.99;61.47;94998.88;5047537;28;20476;-61
2023/06/08 00:42:58;;;;;;;8.20;3.20;;;17.70;96.90;;;17.97;61.73;94994.72;5049895;28;20467;-61
2023/06/08 00:45:26;;;;;;;3.47;2.70;;;17.70;97.00;;;17.92;61.95;94998.78;5054073;28;21003;-64
2023/06/08 00:47:53;;;;;;;5.57;3.10;;;17.60;97.00;;;17.91;61.24;94993.66;5054186;28;20556;-64
2023/06/08 00:50:20;;;;;;;2.70;2.50;;;17.60;97.00;;;17.86;61.96;94991.50;5054134;28;20831;-64
2023/06/08 00:52:48;;;;;;;6.50;2.87;;;17.60;97.10;;;17.84;61.91;94996.16;5054210;28;20537;-64
2023/06/08 00:55:19;;;;;;;6.80;3.80;;;17.50;97.10;;;17.80;61.36;94984.25;5051316;28;20475;-60
2023/06/08 00:57:47;;;;;;;8.60;2.70;;;17.50;97.10;;;17.74;62.14;94987.63;5051952;28;20452;-61
2023/06/08 01:00:15;;;;;;;2.97;2.70;;;17.40;97.20;;;17.72;61.93;94990.47;5048359;28;20479;-63
2023/06/08 01:02:43;;;;;;;4.67;2.40;;;17.40;97.20;;;17.71;62.05;94988.00;5048352;28;20983;-63
2023/06/08 01:05:12;;;;;;;3.00;2.50;;;17.40;97.30;;;17.68;62.34;94991.00;5052928;28;20566;-60
2023/06/08 01:07:48;;;;;;;4.80;2.73;;;17.40;97.30;;;17.63;62.49;94990.69;5048166;28;20464;-62
2023/06/08 01:10:22;;;;;;;5.77;2.63;;;17.30;97.30;;;17.59;61.96;94984.13;5056572;28;20502;-64
2023/06/08 01:12:55;;;;;;;3.90;3.10;;;17.30;97.50;;;17.52;62.18;94984.84;5051652;28;20458;-60
2023/06/08 01:15:27;;;;;;;7.13;3.63;;;17.30;97.50;;;17.50;62.25;94993.97;5050429;28;20824;-60
2023/06/08 01:18:04;;;;;;;3.20;2.90;;;17.20;97.60;;;17.46;62.08;94990.88;5051165;28;20451;-64
2023/06/08 01:20:38;;;;;;;2.90;2.30;;;17.20;97.60;;;17.42;62.23;94994.06;5050738;28;21443;-60
2023/06/08 01:23:20;;;;;;;7.97;2.87;;;17.10;97.70;;;17.37;63.04;94990.09;5053189;28;20549;-61
2023/06/08 01:25:50;;;;;;;7.13;2.83;;;17.10;97.90;;;17.35;62.70;94991.28;5056368;28;20721;-63
2023/06/08 01:28:17;;;;;;;6.90;2.60;;;17.10;97.90;;;17.33;62.76;94999.44;5051264;28;20463;-61
2023/06/08 01:30:46;;;;;;;4.10;3.53;;;17.00;97.90;;;17.31;62.83;94993.47;5049897;28;21094;-59
2023/06/08 01:33:16;;;;;;;4.13;2.40;;;17.00;97.90;;;17.28;63.04;95001.00;5047482;28;20486;-64
2023/06/08 01:35:44;;;;;;;5.70;2.80;;;17.00;98.10;;;17.25;62.98;95007.47;5050615;28;20554;-63
2023/06/08 01:38:18;;;;;;;3.00;2.80;;;17.00;97.90;;;17.20;63.25;94997.38;5047294;28;21193;-63
2023/06/08 01:40:50;;;;;;;7.20;3.60;;;16.90;98.00;;;17.20;63.36;95000.03;5047465;28;20889;-60
2023/06/08 01:43:20;;;;;;;4.27;2.70;;;16.90;98.30;;;17.17;62.92;95000.38;5052531;28;20547;-61
2023/06/08 01:45:49;;;;;;;4.13;3.67;;;16.90;98.20;;;17.15;63.16;94997.09;5049828;28;20458;-62
2023/06/08 01:48:16;;;;;;;2.40;2.20;;;16.90;98.20;;;17.14;63.45;95005.25;5051836;28;21068;-65
2023/06/08 01:50:44;;;;;;;2.77;2.57;;;16.80;98.20;;;17.11;63.47;94995.78;5052841;28;21208;-64
2023/06/08 01:53:11;;;;;;;4.43;2.63;;;16.80;98.30;;;17.08;63.61;94996.13;5053889;28;20460;-60
2023/06/08 01:55:38;;;;;;;3.27;2.97;;;16.80;98.30;;;17.07;63.54;94996.31;5052333;28;20859;-62
2023/06/08 01:58:07;;;;;;;2.40;2.20;;;16.80;98.30;;;17.03;63.48;94993.19;5049758;28;20462;-63
2023/06/08 02:00:34;;;;;;;3.90;2.67;;;16.70;98.40;;;17.01;63.33;94989.91;5053151;28;20481;-61
2023/06/08 02:03:01;;;;;;;3.37;3.07;;;16.70;98.40;;;17.00;63.62;94990.88;5051953;28;20451;-61
2023/06/08 02:05:29;;;;;;;5.40;2.93;;;16.70;98.40;;;16.98;63.40;94984.94;5058968;28;20478;-62
2023/06/08 02:07:56;;;;;;;4.17;2.60;;;16.70;98.50;;;16.96;63.34;94978.94;5053134;28;20649;-63
2023/06/08 02:10:24;;;;;;;3.90;3.27;;;16.70;98.60;;;16.99;63.51;94986.56;5059060;28;20868;-62
2023/06/08 02:12:52;;;;;;;7.07;2.73;;;16.70;98.50;;;16.98;63.39;94979.63;5054118;28;20459;-64
2023/06/08 02:15:20;;;;;;;2.20;2.10;;;16.70;98.50;;;16.97;63.45;94977.94;5052671;28;20472;-65
2023/06/08 02:17:48;;;;;;;5.10;2.93;;;16.70;98.60;;;16.95;63.69;94974.66;5051110;28;20455;-64
2023/06/08 02:20:15;;;;;;;5.60;3.00;;;16.70;98.50;;;16.93;63.87;94977.50;5054228;28;20578;-63
2023/06/08 02:22:42;;;;;;;8.10;3.73;;;16.70;98.50;;;16.90;64.02;94977.84;5054879;28;20452;-61
2023/06/08 02:25:10;;;;;;;8.03;3.20;;;16.60;98.70;;;16.88;63.84;94973.69;5054746;28;20500;-62
2023/06/08 02:27:38;;;;;;;3.13;2.60;;;16.60;98.60;;;16.88;63.31;94976.34;5056418;28;20448;-63
2023/06/08 02:30:08;;;;;;;3.13;2.60;;;16.60;98.50;;;16.87;63.70;94980.00;5055487;28;20478;-64
2023/06/08 02:32:37;;;;;;;4.67;3.40;;;16.60;98.70;;;16.87;63.73;94982.66;5053300;28;20482;-61
2023/06/08 02:35:05;;;;;;;4.73;2.83;;;16.60;98.80;;;16.85;63.72;94981.00;5053805;28;20478;-63
2023/06/08 02:37:33;;;;;;;5.63;3.23;;;16.60;98.80;;;16.84;63.89;94981.97;5056476;28;20459;-63
2023/06/08 02:40:03;;;;;;;2.60;2.40;;;16.60;98.80;;;16.84;63.81;94974.00;5055475;28;20483;-62
2023/06/08 02:42:31;;;;;;;10.27;2.97;;;16.60;98.80;;;16.81;64.22;94985.00;5051112;28;20854;-62
2023/06/08 02:44:58;;;;;;;6.03;2.87;;;16.60;98.90;;;16.79;63.83;94981.69;5053035;28;20480;-65
2023/06/08 02:47:25;;;;;;;7.10;2.73;;;16.50;98.80;;;16.80;63.84;94982.50;5059260;28;20974;-62
2023/06/08 02:49:54;;;;;;;3.00;2.70;;;16.60;99.00;;;16.79;63.67;94981.69;5055836;28;20483;-65
2023/06/08 02:52:22;;;;;;;4.63;3.10;;;16.50;98.80;;;16.79;63.89;94987.00;5055304;28;21087;-61
2023/06/08 02:54:49;;;;;;;5.60;2.53;;;16.50;98.90;;;16.78;63.84;94992.50;5052556;28;20472;-62
2023/06/08 02:57:16;;;;;;;8.53;2.83;;;16.50;98.90;;;16.79;64.10;94991.47;5052239;28;20518;-62
2023/06/08 02:59:44;;;;;;;4.50;3.47;;;16.50;99.00;;;16.79;63.83;94991.47;5056160;28;20471;-62
2023/06/08 03:02:11;;;;;;;4.67;2.97;;;16.50;99.00;;;16.79;63.96;94992.31;5051868;28;20521;-62
2023/06/08 03:04:43;;;;;;;12.07;3.00;;;16.50;99.00;;;16.81;64.22;94994.81;5054963;28;20463;-64
2023/06/08 03:07:15;;;;;;;6.57;2.70;;;16.50;99.00;;;16.85;64.21;94993.44;5052916;28;20533;-63
2023/06/08 03:09:42;;;;;;;4.13;3.20;;;16.50;99.10;;;16.88;64.17;94993.09;5052286;28;20521;-62
2023/06/08 03:12:12;;;;;;;5.97;2.63;;;16.60;99.10;;;16.91;64.10;94991.94;5051766;28;20925;-65
2023/06/08 03:14:40;;;;;;;7.00;3.70;;;16.60;99.10;;;16.95;64.09;94991.41;5052591;28;21003;-66
2023/06/08 03:17:07;;;;;;;8.40;3.80;;;16.60;99.00;;;16.97;63.62;94988.56;5056262;28;20464;-60
2023/06/08 03:19:35;;;;;;;9.30;3.13;;;16.60;98.80;;;16.96;63.64;94986.91;5051794;28;20478;-64
2023/06/08 03:22:06;;;;;;;6.73;3.10;;;16.70;98.80;;;16.92;63.47;94983.78;5053764;28;20836;-65
2023/06/08 03:24:35;;;;;;;8.70;3.33;;;16.60;98.70;;;16.89;63.39;94988.66;5051033;28;20493;-64
2023/06/08 03:27:02;;;;;;;3.80;3.43;;;16.60;98.70;;;16.85;63.51;94986.31;5047940;28;20463;-62
2023/06/08 03:29:30;;;;;;;3.97;2.70;;;16.60;98.60;;;16.85;63.72;94990.78;5052632;28;20475;-61
2023/06/08 03:31:57;;;;;;;5.20;3.10;;;16.60;98.70;;;16.88;63.34;94995.75;5050514;28;20581;-64
2023/06/08 03:34:26;;;;;;;5.50;2.63;;;16.60;98.70;;;16.93;63.51;95000.56;5051402;28;20506;-64
2023/06/08 03:36:53;;;;;;;9.67;4.07;;;16.60;98.80;;;16.99;63.37;94997.19;5051613;28;20462;-61
2023/06/08 03:39:21;;;;;;;5.13;3.73;;;16.70;98.90;;;17.06;63.62;95000.81;5050658;28;21185;-59
2023/06/08 03:41:49;;;;;;;7.73;3.60;;;16.70;99.10;;;17.15;63.54;95005.06;5055058;28;21067;-60
2023/06/08 03:44:17;;;;;;;3.80;2.60;;;16.80;99.20;;;17.24;63.52;95005.00;5051595;28;20533;-59
2023/06/08 03:46:44;;;;;;;4.80;2.87;;;16.90;99.10;;;17.30;63.27;94999.78;5055390;28;20509;-68
2023/06/08 03:49:11;;;;;;;8.63;2.80;;;17.00;99.00;;;17.35;63.21;95007.22;5054438;28;20876;-60
2023/06/08 03:51:38;;;;;;;12.47;3.40;;;17.00;98.80;;;17.39;62.92;95003.22;5051555;28;20487;-60
2023/06/08 03:54:06;;;;;;;7.33;3.77;;;17.00;98.70;;;17.44;62.95;95010.66;5050539;28;20509;-68
2023/06/08 03:56:33;;;;;;;5.50;3.67;;;17.10;98.80;;;17.47;62.87;95008.47;5055280;28;20456;-60
2023/06/08 03:59:02;;;;;;;11.23;4.40;;;17.10;98.70;;;17.48;62.58;95002.13;5051832;28;20477;-60
2023/06/08 04:01:30;;;;;;;3.73;3.20;;;17.20;98.60;;;17.49;62.43;95009.13;5055077;28;20451;-68
2023/06/08 04:03:57;;;;;;;9.57;3.20;;;17.20;98.50;;;17.52;63.04;95010.56;5050224;28;21010;-61
2023/06/08 04:06:33;;;;;;;7.50;4.00;;;17.20;98.60;;;17.59;62.70;95013.38;5055008;28;20566;-59
2023/06/08 04:09:01;;;;;;;4.47;3.03;;;17.20;98.70;;;17.62;62.82;95007.69;5050819;28;20474;-59
2023/06/08 04:11:28;;;;;;;4.67;3.67;;;17.30;98.50;;;17.66;63.06;95008.97;5047051;28;20574;-60
2023/06/08 04:13:56;;;;;;;5.87;3.47;;;17.30;98.70;;;17.72;62.75;95008.25;5051557;28;21033;-61
2023/06/08 04:16:25;;;;;;;10.70;4.43;;;17.40;98.80;;;17.77;63.32;95008.53;5052528;28;20451;-67
2023/06/08 04:18:53;;;;;;;9.03;4.40;;;17.40;98.90;;;17.80;62.87;95010.84;5044470;28;20578;-59
2023/06/08 04:21:21;;;;;;;8.57;4.57;;;17.40;98.50;;;17.82;62.66;95008.81;5049467;28;20489;-61
2023/06/08 04:23:48;;;;;;;6.00;5.13;;;17.50;98.70;;;17.85;62.92;95005.78;5048318;28;20941;-61
2023/06/08 04:26:17;;;;;;;9.30;4.50;;;17.50;98.90;;;17.91;62.85;95007.75;5052090;28;20459;-66
2023/06/08 04:28:48;;;;;;;10.57;4.63;;;17.60;98.80;;;17.98;63.03;95007.03;5054260;28;20896;-60
2023/06/08 04:31:16;;;;;;;14.53;4.70;;;17.60;99.10;;;18.05;63.61;95005.31;5048796;28;20480;-67
2023/06/08 04:33:45;;;;;;;8.47;4.70;;;17.70;99.20;;;18.12;63.22;95006.22;5055429;28;20470;-72
2023/06/08 04:36:12;;;;;;;7.33;5.00;;;17.70;99.20;;;18.17;63.46;95009.16;5049033;28;20556;-63
2023/06/08 04:38:41;;;;;;;10.60;5.70;;;17.80;99.30;;;18.22;63.59;95006.78;5050252;28;21137;-62
2023/06/08 04:41:08;;;;;;;6.70;4.93;;;17.90;99.30;;;18.27;63.26;95011.53;5053575;28;20877;-59
2023/06/08 04:43:35;;;;;;;29.40;7.37;;;17.90;99.40;;;18.32;63.23;95011.81;5052177;28;20455;-73
2023/06/08 04:46:04;;;;;;;9.00;5.53;;;17.90;99.30;;;18.36;63.42;94999.78;5047973;28;20482;-72
2023/06/08 04:48:33;;;;;;;13.33;5.77;;;18.00;99.20;;;18.42;63.02;95008.88;5052847;28;20453;-60
2023/06/08 04:51:03;;;;;;;12.93;5.33;;;18.00;99.10;;;18.47;63.29;95011.81;5053108;28;20448;-74
2023/06/08 04:53:33;;;;;;;6.47;5.13;;;18.10;99.10;;;18.52;62.49;95008.59;5054169;28;20842;-75
2023/06/08 04:56:01;;;;;;;13.90;6.53;;;18.10;99.00;;;18.58;62.66;95007.84;5050894;28;20482;-59
2023/06/08 04:58:29;;;;;;;10.53;6.60;;;18.20;99.10;;;18.63;62.47;95006.25;5050644;28;20942;-57
2023/06/08 05:00:56;;;;;;;14.33;5.40;;;18.30;99.10;;;18.69;62.96;95003.88;5052469;28;20600;-58
2023/06/08 05:03:24;;;;;;;7.90;4.50;;;18.30;98.90;;;18.74;62.72;95012.13;5049218;28;20517;-60
2023/06/08 05:05:51;;;;;;;6.50;4.43;;;18.40;99.00;;;18.80;62.18;95000.72;5053484;28;20515;-73
2023/06/08 05:08:20;;;;;;;11.93;4.33;;;18.40;98.90;;;18.85;61.86;94998.34;5051111;28;20542;-59
2023/06/08 05:10:47;;;;;;;15.93;4.37;;;18.50;98.60;;;18.93;61.69;95010.72;5053786;28;20443;-67
2023/06/08 05:13:14;;;;;;;12.60;4.43;;;18.50;98.00;;;19.00;60.67;95006.31;5053468;28;20560;-72
2023/06/08 05:15:41;;;;;;;6.70;4.00;;;18.60;97.80;;;19.10;60.43;95000.66;5054210;28;20524;-59
2023/06/08 05:18:09;;;;;;;7.57;4.13;;;18.70;97.70;;;19.24;59.99;95006.97;5052322;28;20524;-61
2023/06/08 05:20:36;;;;;;;10.60;4.50;;;18.80;97.30;;;19.40;60.13;95008.56;5054322;28;20471;-60
2023/06/08 05:23:03;;;;;;;6.33;3.73;;;18.90;97.30;;;19.50;59.37;95007.22;5050911;28;20456;-71
2023/06/08 05:25:36;;;;;;;7.70;3.70;;;19.00;96.70;;;19.59;58.70;95013.22;5061608;28;20468;-60
2023/06/08 05:28:04;;;;;;;9.13;4.30;;;19.20;96.60;;;19.71;58.37;95011.69;5049899;28;20440;-59
2023/06/08 05:30:31;;;;;;;18.30;4.60;;;19.30;96.30;;;19.85;58.06;95009.16;5055007;28;20498;-75
2023/06/08 05:33:00;;;;;;;12.10;4.50;;;19.40;95.90;;;20.00;58.06;95012.56;5052271;28;20543;-60
2023/06/08 05:35:27;;;;;;;6.17;3.97;;;19.50;95.80;;;20.20;57.85;95012.69;5053506;28;20553;-73
2023/06/08 05:37:54;;;;;;;5.83;3.73;;;19.70;95.80;;;20.37;57.19;95013.22;5050453;28;20448;-60
2023/06/08 05:40:22;;;;;;;8.43;4.57;;;19.80;95.30;;;20.55;56.60;95017.19;5048305;28;20562;-74
2023/06/08 05:42:50;;;;;;;6.10;4.50;;;20.00;94.90;;;20.73;56.05;95016.69;5053306;28;20448;-75
2023/06/08 05:45:18;;;;;;;4.63;3.23;;;20.20;94.70;;;20.88;56.00;95025.41;5050438;28;20493;-60
2023/06/08 05:47:45;;;;;;;9.23;4.00;;;20.40;94.50;;;21.04;55.85;95023.41;5049257;28;20456;-75
2023/06/08 05:50:12;;;;;;;9.80;3.40;;;20.50;94.10;;;21.26;54.76;95024.88;5058873;28;20468;-61
2023/06/08 05:52:39;;;;;;;9.53;3.57;;;20.70;93.80;;;21.46;54.26;95016.88;5049023;28;20495;-61
2023/06/08 05:55:08;;;;;;;5.63;3.10;;;20.90;93.30;;;21.69;53.66;95013.03;5053638;28;20482;-60
2023/06/08 05:57:35;;;;;;;5.30;4.13;;;21.10;93.10;;;21.94;53.29;95013.22;5057960;28;20524;-75
2023/06/08 06:00:09;;;;;;;4.43;3.80;;;21.30;92.70;;;22.15;53.21;95011.34;5051367;28;20520;-75
2023/06/08 06:02:37;;;;;;;10.23;3.80;;;21.60;92.20;;;22.36;51.59;95005.78;5051399;28;20450;-75
2023/06/08 06:05:06;;;;;;;4.50;3.57;;;21.80;91.50;;;22.47;51.49;95008.84;5052110;28;20475;-60
2023/06/08 06:07:33;;;;;;;4.13;3.73;;;21.90;91.00;;;22.60;51.77;95007.97;5047806;28;20879;-59
2023/06/08 06:10:00;;;;;;;6.47;3.37;;;22.00;90.80;;;22.78;51.06;95013.47;5052748;28;21165;-61
2023/06/08 06:12:28;;;;;;;9.33;3.63;;;22.20;90.50;;;22.89;50.55;95007.44;5049009;28;20487;-59
2023/06/08 06:14:55;;;;;;;5.13;4.00;;;22.30;90.00;;;22.97;50.09;95005.56;5052938;28;20471;-75
2023/06/08 06:17:24;;;;;;;12.10;3.90;;;22.40;88.70;;;23.03;49.63;95004.72;5048584;28;20513;-60
2023/06/08 06:19:52;;;;;;;5.70;4.70;;;22.50;88.40;;;23.12;49.91;95000.75;5053636;28;20918;-59
2023/06/08 06:22:19;;;;;;;8.40;4.53;;;22.60;87.80;;;23.23;49.93;95002.75;5051288;28;20463;-75
2023/06/08 06:24:46;;;;;;;5.63;3.90;;;22.70;88.10;;;23.45;48.97;95002.41;5052726;28;20576;-75
2023/06/08 06:27:13;;;;;;;11.37;4.80;;;22.90;87.60;;;23.71;48.83;95005.97;5055258;28;20451;-59
2023/06/08 06:29:41;;;;;;;3.53;3.23;;;23.10;87.40;;;23.97;48.39;95004.97;5050229;28;20931;-75
2023/06/08 06:32:09;;;;;;;6.03;4.37;;;23.40;86.80;;;24.19;47.66;95002.69;5050319;28;20494;-60
2023/06/08 06:34:38;;;;;;;7.80;4.73;;;23.60;84.90;;;24.33;47.78;95000.69;5052842;28;20482;-62
2023/06/08 06:37:06;;;;;;;5.77;3.90;;;23.80;84.20;;;24.42;46.83;94998.53;5050855;28;20812;-74
2023/06/08 06:39:33;;;;;;;7.40;3.40;;;23.90;83.10;;;24.43;47.05;94995.63;5052882;28;20472;-74
2023/06/08 06:42:01;;;;;;;3.70;3.40;;;23.90;81.80;;;24.49;46.75;94992.03;5049856;28;20520;-61
2023/06/08 06:44:29;;;;;;;7.23;4.00;;;24.00;81.90;;;24.53;46.68;94989.72;5052387;28;20884;-75
2023/06/08 06:46:56;;;;;;;8.80;3.60;;;24.00;80.70;;;24.57;46.21;94988.25;5051071;28;20966;-72
2023/06/08 06:49:23;;;;;;;9.47;3.00;;;24.00;79.40;;;24.69;45.79;94991.84;5058690;28;20495;-74
2023/06/08 06:51:52;;;;;;;3.57;3.07;;;24.10;79.80;;;24.85;45.74;94984.22;5057977;28;20491;-73
2023/06/08 06:54:21;;;;;;;17.93;4.17;;;24.30;79.90;;;24.92;45.51;94978.72;5054315;28;20934;-61
2023/06/08 06:56:48;;;;;;;7.17;3.83;;;24.30;79.50;;;24.98;45.77;94985.91;5059524;28;20987;-59
2023/06/08 06:59:15;;;;;;;13.90;3.90;;;24.40;79.10;;;25.13;45.75;94994.38;5054826;28;20536;-73
2023/06/08 07:01:42;;;;;;;12.07;3.40;;;24.50;78.70;;;25.36;45.37;94987.47;5057819;28;20503;-72
2023/06/08 07:04:11;;;;;;;9.30;3.70;;;24.70;78.30;;;25.64;45.50;94986.84;5052027;28;20534;-72
2023/06/08 07:06:38;;;;;;;6.00;3.47;;;25.00;78.60;;;25.87;44.55;94977.13;5056763;28;20462;-70
2023/06/08 07:09:07;;;;;;;11.30;3.67;;;25.20;77.00;;;25.98;44.57;94975.53;5050184;28;20475;-71
2023/06/08 07:11:35;;;;;;;5.73;3.40;;;25.30;77.00;;;25.98;44.06;94973.69;5049723;28;20447;-72
2023/06/08 07:14:02;;;;;;;13.63;3.70;;;25.40;75.90;;;25.94;44.14;94975.16;5053246;28;20475;-60
2023/06/08 07:16:29;;;;;;;5.33;3.30;;;25.30;75.00;;;25.93;43.49;94979.75;5055738;28;20455;-71
2023/06/08 07:18:57;;;;;;;6.00;3.50;;;25.40;74.50;;;25.97;43.87;94972.00;5056154;28;20486;-59
2023/06/08 07:21:25;;;;;;;13.50;4.03;;;25.40;74.50;;;26.03;43.40;94962.19;5052812;28;20574;-60
2023/06/08 07:23:53;;;;;;;9.60;4.30;;;25.40;74.00;;;26.16;43.71;94969.22;5055383;28;20487;-71
2023/06/08 07:26:21;;;;;;;8.03;3.60;;;25.50;74.30;;;26.31;43.51;94969.56;5059911;28;20509;-71
2023/06/08 07:28:52;;;;;;;9.90;3.80;;;25.60;73.80;;;26.37;43.22;94957.00;5056949;28;20467;-72
2023/06/08 07:31:19;;;;;;;6.87;3.73;;;25.70;73.20;;;26.33;42.97;94959.34;5054952;28;20435;-72
2023/06/08 07:33:46;;;;;;;8.10;3.43;;;25.70;72.50;;;26.27;43.41;94963.00;5055225;28;20501;-59
2023/06/08 07:36:14;;;;;;;6.47;4.07;;;25.80;72.60;;;26.29;43.34;94967.09;5051065;28;20458;-60
2023/06/08 07:38:41;;;;;;;9.60;5.37;;;25.80;72.60;;;26.37;43.16;94957.84;5050799;28;20482;-71
2023/06/08 07:41:08;;;;;;;7.23;4.00;;;25.90;73.50;;;26.48;43.03;94962.38;5051098;28;20471;-72
2023/06/08 07:43:37;;;;;;;28.33;3.83;;;25.90;72.00;;;26.61;42.88;94953.19;5056757;28;21002;-61
2023/06/08 07:46:04;;;;;;;4.23;3.47;;;26.10;72.40;;;26.87;42.76;94950.25;5047412;28;20452;-59
2023/06/08 07:48:31;;;;;;;9.17;4.27;;;26.20;72.00;;;27.05;42.87;94951.91;5047758;28;20791;-60
2023/06/08 07:50:59;;;;;;;5.10;3.23;;;26.40;71.80;;;27.22;42.55;94962.75;5057010;28;20451;-74
2023/06/08 07:53:26;;;;;;;3.47;3.17;;;26.50;71.50;;;27.28;42.78;94951.00;5053268;28;20608;-72
2023/06/08 07:55:53;;;;;;;8.87;3.30;;;26.70;71.40;;;27.38;42.76;94951.22;5054285;28;20501;-71
2023/06/08 07:58:20;;;;;;;6.77;3.40;;;26.80;71.70;;;27.57;42.72;94951.81;5055995;28;20450;-60
2023/06/08 08:00:49;;;;;;;5.00;3.43;;;26.90;71.40;;;27.82;41.95;94945.19;5049887;28;20455;-61
2023/06/08 08:03:19;;;;;;;7.63;3.77;;;27.10;71.10;;;28.01;42.03;94959.28;5055625;28;20497;-60
2023/06/08 08:05:48;;;;;;;3.93;3.53;;;27.30;69.90;;;28.17;41.88;94954.94;5050122;28;20439;-71
2023/06/08 08:08:15;;;;;;;13.47;5.20;;;27.50;69.50;;;28.32;41.94;94954.31;5049955;28;20478;-61
2023/06/08 08:10:43;;;;;;;7.30;4.00;;;27.70;69.30;;;28.37;41.23;94949.81;5051392;28;20472;-61
2023/06/08 08:13:12;;;;;;;4.80;4.37;;;27.70;68.50;;;28.34;41.62;94946.78;5050387;28;20486;-74
2023/06/08 08:15:39;;;;;;;9.20;4.57;;;27.70;68.30;;;28.37;41.55;94943.59;5051264;28;20475;-73
2023/06/08 08:18:08;;;;;;;6.00;4.73;;;27.80;68.30;;;28.57;41.62;94948.44;5056165;28;20537;-73
2023/06/08 08:20:35;;;;;;;10.37;6.37;;;27.90;68.90;;;28.77;41.07;94948.72;5052120;28;20474;-74
2023/06/08 08:23:03;;;;;;;11.37;7.50;;;28.10;68.30;;;28.94;41.35;94940.53;5053658;28;20464;-74
2023/06/08 08:25:30;;;;;;;15.97;7.30;;;28.30;67.80;;;29.13;40.62;94940.19;5059127;28;20533;-71
2023/06/08 08:27:58;;;;;;;8.00;5.30;;;28.40;67.90;;;29.25;41.05;94945.47;5052315;28;20447;-73
2023/06/08 08:30:26;;;;;;;17.57;5.60;;;28.60;67.30;;;29.29;40.76;94941.19;5056026;28;20470;-61
2023/06/08 08:32:53;;;;;;;6.60;4.77;;;28.60;67.00;;;29.41;40.30;94936.44;5051336;28;20487;-59
2023/06/08 08:35:28;;;;;;;9.07;4.60;;;28.70;67.00;;;29.56;39.89;94941.19;5053578;28;20462;-61
2023/06/08 08:37:55;;;;;;;10.60;5.00;;;28.80;66.00;;;29.74;40.06;94931.00;5050667;28;20443;-60
2023/06/08 08:40:23;;;;;;;18.97;4.20;;;29.10;65.80;;;29.77;39.55;94936.72;5053646;28;20474;-74
2023/06/08 08:42:54;;;;;;;10.27;4.57;;;29.10;65.60;;;29.72;39.18;94933.97;5048805;28;20443;-62
2023/06/08 08:45:23;;;;;;;14.87;4.60;;;29.10;64.70;;;29.63;40.09;94936.34;5056785;28;20516;-67
2023/06/08 08:47:53;;;;;;;6.53;4.60;;;29.10;64.20;;;29.62;39.92;94936.59;5050281;28;20443;-72
2023/06/08 08:50:21;;;;;;;14.87;4.20;;;29.10;64.70;;;29.69;40.15;94942.63;5060972;28;20467;-71
2023/06/08 08:52:53;;;;;;;7.30;4.20;;;29.10;64.90;;;29.79;39.35;94939.19;5050103;28;20486;-59
2023/06/08 08:55:27;;;;;;;6.80;4.27;;;29.20;64.60;;;29.84;39.68;94933.84;5053407;28;20989;-61
2023/06/08 08:57:57;;;;;;;14.23;4.90;;;29.20;64.40;;;29.87;40.14;94930.63;5053445;28;20200;-73
2023/06/08 09:00:24;;;;;;;8.07;4.80;;;29.20;64.40;;;29.86;40.30;94929.78;5051283;28;20483;-59
2023/06/08 09:02:52;;;;;;;12.90;4.30;;;29.20;64.50;;;29.99;39.78;94924.97;5053351;28;20461;-59
2023/06/08 09:05:21;;;;;;;9.23;4.57;;;29.30;64.80;;;30.12;39.26;94929.16;5052365;28;20239;-60
2023/06/08 09:07:48;;;;;;;7.27;4.17;;;29.40;64.40;;;30.16;39.83;94913.97;5054793;28;20459;-73
2023/06/08 09:10:18;;;;;;;20.10;5.43;;;29.50;64.30;;;30.27;39.20;94914.84;5047700;28;20225;-71
2023/06/08 09:12:46;;;;;;;10.03;3.63;;;29.60;64.00;;;30.31;39.52;94915.97;5050340;28;20229;-73
2023/06/08 09:15:16;;;;;;;6.90;5.00;;;29.60;63.80;;;30.30;39.90;94912.41;5048825;28;20232;-60
2023/06/08 09:17:44;;;;;;;7.00;3.67;;;29.70;63.80;;;30.32;38.92;94904.00;5051084;28;20461;-60
2023/06/08 09:20:12;;;;;;;3.90;3.60;;;29.70;63.50;;;30.31;39.39;94908.63;5049252;28;20221;-75
2023/06/08 09:22:41;;;;;;;6.70;3.70;;;29.70;62.80;;;30.24;38.52;94909.94;5053988;28;20267;-73
2023/06/08 09:25:09;;;;;;;8.17;4.10;;;29.60;62.00;;;30.08;39.06;94903.63;5055019;28;20322;-61
2023/06/08 09:27:37;;;;;;;7.00;3.90;;;29.60;62.20;;;29.94;38.88;94904.06;5051600;28;20447;-71
2023/06/08 09:30:22;;;;;;;6.23;4.00;;;29.50;62.00;;;29.81;38.45;94904.53;5049571;28;20228;-72
2023/06/08 09:32:49;;;;;;;3.80;3.40;;;29.40;61.80;;;29.60;39.29;94904.31;5049441;28;20222;-61
2023/06/08 09:35:23;;;;;;;15.37;3.67;;;29.20;62.20;;;29.57;40.20;94895.91;5057832;28;20767;-69
2023/06/08 09:37:52;;;;;;;6.47;3.93;;;29.10;63.20;;;29.64;40.23;94900.03;5049369;28;20443;-71
2023/06/08 09:40:21;;;;;;;8.73;4.27;;;29.10;63.70;;;29.73;39.90;94894.97;5055531;28;20220;-66
2023/06/08 09:42:50;;;;;;;8.10;4.00;;;29.10;63.50;;;29.87;40.08;94898.06;5052142;28;20236;-72
2023/06/08 09:45:18;;;;;;;4.37;3.43;;;29.20;64.00;;;30.09;39.34;94895.22;5052871;28;20224;-60
2023/06/08 09:47:46;;;;;;;8.27;3.13;;;29.40;62.50;;;30.03;39.03;94890.84;5052916;28;20205;-59
2023/06/08 09:50:13;;;;;;;4.40;3.83;;;29.40;61.90;;;29.89;38.64;94886.97;5051590;28;20217;-62
2023/06/08 09:52:41;;;;;;;5.80;3.50;;;29.40;61.90;;;29.75;39.61;94881.13;5052819;28;20215;-60
2023/06/08 09:55:10;;;;;;;4.87;3.80;;;29.30;61.90;;;29.63;39.84;94892.97;5051013;28;20231;-59
2023/06/08 09:57:38;;;;;;;18.43;4.30;;;29.20;62.30;;;29.55;39.43;94884.50;5052506;28;20592;-60
2023/06/08 10:00:14;;;;;;;4.60;3.80;;;29.10;62.50;;;29.52;40.10;94891.25;5054673;28;20256;-71
2023/06/08 10:02:47;;;;;;;5.07;4.03;;;29.00;62.50;;;29.45;39.30;94880.66;5051976;28;20450;-69
2023/06/08 10:05:15;;;;;;;7.13;3.53;;;28.90;62.40;;;29.40;39.66;94887.91;5053367;28;20242;-72
2023/06/08 10:07:45;;;;;;;3.47;3.13;;;28.90;62.90;;;29.38;39.87;94880.03;5049857;28;20201;-70
2023/06/08 10:10:19;;;;;;;5.93;2.97;;;28.90;63.20;;;29.46;39.79;94870.59;5052899;28;21405;-59
2023/06/08 10:12:46;;;;;;;8.90;3.10;;;28.90;63.10;;;29.57;39.62;94872.31;5047035;28;20193;-71
2023/06/08 10:15:13;;;;;;;4.50;2.93;;;29.00;62.90;;;29.67;39.16;94858.84;5052517;28;20236;-59
2023/06/08 10:17:41;;;;;;;2.90;2.63;;;29.00;62.30;;;29.81;39.07;94853.00;5050698;28;20669;-70
2023/06/08 10:20:12;;;;;;;6.33;3.90;;;29.20;62.40;;;29.92;39.19;94867.47;5046738;28;20712;-72
2023/06/08 10:22:40;;;;;;;3.90;3.40;;;29.30;62.10;;;29.97;39.44;94846.59;5055531;28;20694;-72